Sunday, April 22, 2018, 12:54 PM CDT
Back to Local

KT82, Fredericksburg, Gillespie County Airport

Location: Fredericksburg, TX, United States Lat: 30.244
Local Time: 12:54 PM CDT (17:54 GMT) Lon: -98.909
Time Zone: US/Central Elev: 1696 ft

Show me the last for .
Show Decoded

2018-04-22 12:35 METAR KT82 221735Z AUTO 36010G16KT 10SM CLR 19/06 A3014 RMK AO2 T01890059 =
2018-04-22 12:15 METAR KT82 221715Z AUTO 01010G14KT 10SM CLR 18/06 A3015 RMK AO2 T01830058 =
2018-04-22 11:55 METAR KT82 221655Z AUTO 01010G17KT 10SM CLR 17/06 A3016 RMK AO2 T01740060 =
2018-04-22 11:35 METAR KT82 221635Z AUTO 36011G15KT 10SM CLR 17/07 A3016 RMK AO2 T01680066 =
2018-04-22 11:15 METAR KT82 221615Z AUTO 36013KT 10SM CLR 16/07 A3016 RMK AO2 T01580065 =
2018-04-22 10:55 METAR KT82 221555Z AUTO 36012G16KT 10SM CLR 15/07 A3016 RMK AO2 T01460065 =
2018-04-22 10:35 METAR KT82 221535Z AUTO 01011G16KT 10SM CLR 14/07 A3016 RMK AO2 T01360068 =
2018-04-22 10:15 METAR KT82 221515Z AUTO 35013G18KT 10SM CLR 13/07 A3017 RMK AO2 T01280067 =
2018-04-22 09:55 METAR KT82 221455Z AUTO 36011G14KT 10SM SCT015 SCT021 12/07 A3017 RMK AO2
                 T01150067 =
2018-04-22 09:35 METAR KT82 221435Z AUTO 35011KT 10SM BKN015 12/07 A3017 RMK AO2 T01150065 =
2018-04-22 09:15 METAR KT82 221415Z AUTO 34014G19KT 10SM BKN015 12/07 A3017 RMK AO2 T01160072 =
2018-04-22 08:55 METAR KT82 221355Z AUTO 34010G15KT 10SM BKN013 11/07 A3016 RMK AO2 T01090072 =
2018-04-22 08:35 METAR KT82 221335Z AUTO 35009KT 10SM BKN013 10/07 A3016 RMK AO2 T01000071 =
2018-04-22 08:15 METAR KT82 221315Z AUTO 35013G16KT 10SM BKN013 10/07 A3014 RMK AO2 T00950072 =
2018-04-22 07:55 METAR KT82 221255Z AUTO 35009KT 10SM SCT013 09/07 A3012 RMK AO2 T00930072 =
2018-04-22 07:35 METAR KT82 221235Z AUTO 34009KT 10SM SCT013 09/07 A3011 RMK AO2 T00920073 =
2018-04-22 07:15 METAR KT82 221215Z AUTO 33007KT 10SM SCT013 09/07 A3012 RMK AO2 T00900071 =
2018-04-22 06:55 METAR KT82 221155Z AUTO 33006KT 10SM CLR 09/07 A3011 RMK AO2 70001 T00860070
                 10125 20071 =
2018-04-22 06:35 METAR KT82 221135Z AUTO 29003KT 10SM CLR 09/07 A3011 RMK AO2 T00890069 =
2018-04-22 06:15 METAR KT82 221115Z AUTO 34004KT 10SM CLR 09/07 A3010 RMK AO2 T00890070 =
2018-04-22 05:55 METAR KT82 221055Z AUTO 35003KT 10SM CLR 09/07 A3009 RMK AO2 T00870070 =
2018-04-22 05:35 METAR KT82 221035Z AUTO 01008KT 10SM CLR 09/07 A3008 RMK AO2 T00850069 =
2018-04-22 05:15 METAR KT82 221015Z AUTO 02005KT 10SM CLR 08/07 A3009 RMK AO2 T00800067 =
2018-04-22 04:55 METAR KT82 220955Z AUTO 35006KT 10SM CLR 07/06 A3009 RMK AO2 T00730056 =
2018-04-22 04:35 METAR KT82 220935Z AUTO 00000KT 10SM CLR 08/06 A3009 RMK AO2 T00780063 =
2018-04-22 04:15 METAR KT82 220915Z AUTO 00000KT 10SM CLR 07/05 A3009 RMK AO2 T00720052 =
2018-04-22 03:55 METAR KT82 220855Z AUTO 00000KT 10SM CLR 09/06 A3009 RMK AO2 T00850063 =
2018-04-22 03:35 METAR KT82 220835Z AUTO 34003KT 10SM CLR 09/07 A3008 RMK AO2 T00920067 =
2018-04-22 03:15 METAR KT82 220815Z AUTO 34004KT 10SM CLR 09/07 A3009 RMK AO2 T00930069 =
2018-04-22 02:55 METAR KT82 220755Z AUTO 36004KT 10SM CLR 10/07 A3009 RMK AO2 T01000072 =
2018-04-22 02:35 METAR KT82 220735Z AUTO 36005KT 10SM CLR 10/07 A3009 RMK AO2 T01000070 =
2018-04-22 02:15 METAR KT82 220715Z AUTO 01006KT 10SM CLR 11/07 A3009 RMK AO2 T01100073 =
2018-04-22 01:55 METAR KT82 220655Z AUTO 36006KT 10SM CLR 11/08 A3010 RMK AO2 T01140075 =
2018-04-22 01:35 METAR KT82 220635Z AUTO 02005KT 10SM CLR 12/08 A3009 RMK AO2 T01190077 =
2018-04-22 01:15 METAR KT82 220615Z AUTO 36010KT 10SM CLR 12/08 A3009 RMK AO2 T01220080 =
2018-04-22 00:55 METAR KT82 220555Z AUTO 36009KT 10SM CLR 12/08 A3009 RMK AO2 T01240083 10260
                 20121 402660121 =
2018-04-22 00:35 METAR KT82 220535Z AUTO 35005KT 10SM CLR 13/08 A3009 RMK AO2 T01320082 =
2018-04-22 00:15 METAR KT82 220515Z AUTO 35004KT 10SM CLR 14/08 A3008 RMK AO2 T01370079 =
2018-04-21 23:55 METAR KT82 220455Z AUTO 32003KT 10SM CLR 15/08 A3007 RMK AO2 T01460079 =
2018-04-21 23:35 METAR KT82 220435Z AUTO 00000KT 10SM CLR 15/08 A3006 RMK AO2 T01510080 =
2018-04-21 23:15 METAR KT82 220415Z AUTO 01010G14KT 10SM CLR 16/08 A3006 RMK AO2 T01560077 =
2018-04-21 22:55 METAR KT82 220355Z AUTO 36013G21KT 10SM CLR 17/08 A3005 RMK AO2 T01650078 =
2018-04-21 22:35 METAR KT82 220335Z AUTO 36013G21KT 10SM CLR 17/09 A3003 RMK AO2 T01730088 =
2018-04-21 22:15 METAR KT82 220315Z AUTO 01012G21KT 10SM CLR 18/10 A3002 RMK AO2 T01810098 =
2018-04-21 21:55 METAR KT82 220255Z AUTO 02013G19KT 10SM CLR 19/11 A3000 RMK AO2 T01940105 =
2018-04-21 21:35 METAR KT82 220235Z AUTO 35010KT 10SM CLR 18/13 A2997 RMK AO2 T01750125 =
2018-04-21 21:15 METAR KT82 220215Z AUTO 25004KT 10SM CLR 17/13 A2994 RMK AO2 T01660128 =
2018-04-21 20:55 METAR KT82 220155Z AUTO 00000KT 10SM CLR 18/13 A2993 RMK AO2 T01750128 =
2018-04-21 20:35 METAR KT82 220135Z AUTO 00000KT 10SM CLR 19/13 A2991 RMK AO2 T01920130 =
2018-04-21 20:15 METAR KT82 220115Z AUTO 00000KT 10SM CLR 22/13 A2990 RMK AO2 T02180128 =
2018-04-21 19:55 METAR KT82 220055Z AUTO 19003KT 10SM CLR 23/13 A2989 RMK AO2 T02320129 =
2018-04-21 19:35 METAR KT82 220035Z AUTO 19004KT 10SM CLR 25/13 A2990 RMK AO2 T02470125 =
2018-04-21 19:15 METAR KT82 220015Z AUTO 19004KT 10SM CLR 26/12 A2989 RMK AO2 T02550120 =
2018-04-21 18:55 METAR KT82 212355Z AUTO 22005KT 10SM SCT090 26/11 A2989 RMK AO2 T02600113 10266
                 20196 =
2018-04-21 18:35 METAR KT82 212335Z AUTO 23004KT 10SM CLR 26/11 A2989 RMK AO2 T02620111 =
2018-04-21 18:15 METAR KT82 212315Z AUTO 00000KT 10SM CLR 26/11 A2988 RMK AO2 T02610110 =
2018-04-21 17:55 METAR KT82 212255Z AUTO 00000KT 10SM CLR 26/11 A2988 RMK AO2 T02620108 =
2018-04-21 17:35 METAR KT82 212235Z AUTO 23005KT 10SM CLR 26/12 A2988 RMK AO2 LTG DSNT E
                 T02630117 =
2018-04-21 17:15 METAR KT82 212215Z AUTO 19008KT 10SM CLR 26/13 A2989 RMK AO2 LTG DSNT E
                 T02610129 =
2018-04-21 16:55 METAR KT82 212155Z AUTO 17005KT 10SM CLR 26/13 A2989 RMK AO2 T02560130 =
2018-04-21 16:35 METAR KT82 212135Z AUTO 17004KT 10SM CLR 25/13 A2990 RMK AO2 T02540133 =
2018-04-21 16:15 METAR KT82 212115Z AUTO 26006KT 10SM SCT043 25/13 A2991 RMK AO2 T02530133 =
2018-04-21 15:55 METAR KT82 212055Z AUTO 20006KT 10SM CLR 25/14 A2991 RMK AO2 T02460139 =
2018-04-21 15:35 METAR KT82 212035Z AUTO 22005KT 10SM SCT031 24/14 A2993 RMK AO2 T02410139 =
2018-04-21 15:15 METAR KT82 212015Z AUTO 22009KT 10SM SCT026 SCT031 24/14 A2994 RMK AO2 T02350143
                 =
2018-04-21 14:55 METAR KT82 211955Z AUTO 19009KT 10SM SCT018 BKN026 BKN031 23/15 A2994 RMK AO2
                 T02270152 =
2018-04-21 14:35 METAR KT82 211935Z AUTO 22010G14KT 10SM BKN018 SCT024 BKN031 23/16 A2995 RMK AO2
                 T02250160 =
2018-04-21 14:15 METAR KT82 211915Z AUTO 20009KT 10SM SCT014 BKN031 BKN037 22/17 A2995 RMK AO2
                 LTG DSNT NE T02190171 =
2018-04-21 13:55 METAR KT82 211855Z AUTO 19009KT 10SM BKN014 BKN021 OVC033 20/17 A2995 RMK AO2
                 T02030170 =
2018-04-21 13:35 METAR KT82 211835Z AUTO 22010KT 10SM OVC014 20/17 A2997 RMK AO2 T01970166 =
2018-04-21 13:15 METAR KT82 211815Z AUTO 20007KT 10SM OVC012 20/17 A2998 RMK AO2 T01960169 =
2018-04-21 12:55 METAR KT82 211755Z AUTO 21009KT 10SM OVC010 20/18 A2998 RMK AO2 60001 T01970176
                 10197 20140 =

Support USWX by starting your Amazon purchase here.